createdAt,value
2022-11-28T00:01:35.432Z,5.07
2022-11-28T00:04:04.223Z,4.80
2022-11-28T00:06:32.222Z,4.67
2022-11-28T00:09:00.561Z,5.17
2022-11-28T00:11:29.744Z,5.00
2022-11-28T00:13:57.573Z,4.67
2022-11-28T00:16:25.597Z,4.70
2022-11-28T00:18:55.539Z,4.37
2022-11-28T00:21:23.991Z,4.13
2022-11-28T00:23:52.637Z,4.57
2022-11-28T00:26:22.246Z,4.73
2022-11-28T00:28:51.929Z,5.30
2022-11-28T00:31:22.481Z,5.33
2022-11-28T00:33:50.546Z,5.10
2022-11-28T00:36:19.099Z,5.43
2022-11-28T00:38:47.294Z,5.40
2022-11-28T00:41:19.605Z,5.43
2022-11-28T00:43:48.628Z,4.87
2022-11-28T00:46:19.185Z,4.97
2022-11-28T00:48:47.286Z,4.77
2022-11-28T00:51:17.410Z,4.67
2022-11-28T00:53:47.850Z,4.60
2022-11-28T00:56:18.757Z,4.57
2022-11-28T00:58:47.522Z,4.93
2022-11-28T01:01:19.519Z,4.73
2022-11-28T01:03:48.316Z,4.03
2022-11-28T01:06:23.426Z,4.33
2022-11-28T01:08:51.685Z,4.43
2022-11-28T01:11:20.507Z,5.30
2022-11-28T01:13:48.422Z,3.90
2022-11-28T01:16:18.144Z,4.13
2022-11-28T01:18:46.104Z,3.97
2022-11-28T01:21:13.896Z,4.40
2022-11-28T01:23:41.683Z,3.80
2022-11-28T01:26:11.013Z,3.50
2022-11-28T01:28:38.804Z,3.70
2022-11-28T01:31:07.852Z,4.10
2022-11-28T01:33:37.518Z,3.50
2022-11-28T01:36:06.127Z,3.37
2022-11-28T01:38:35.798Z,3.20
2022-11-28T01:41:03.798Z,3.27
2022-11-28T01:43:31.969Z,3.13
2022-11-28T01:45:59.812Z,3.13
2022-11-28T01:48:30.143Z,2.87
2022-11-28T01:51:06.265Z,4.03
2022-11-28T01:53:37.716Z,3.40
2022-11-28T01:56:10.082Z,2.80
2022-11-28T01:58:41.328Z,3.77
2022-11-28T02:01:10.149Z,3.03
2022-11-28T02:03:43.837Z,3.17
2022-11-28T02:06:15.582Z,3.00
2022-11-28T02:08:43.768Z,3.40
2022-11-28T02:11:30.522Z,3.17
2022-11-28T02:14:09.512Z,3.47
2022-11-28T02:16:50.992Z,3.70
2022-11-28T02:19:59.177Z,3.67
2022-11-28T02:22:36.433Z,3.80
2022-11-28T02:25:20.420Z,3.70
2022-11-28T02:28:21.753Z,3.10
2022-11-28T02:30:58.769Z,3.67
2022-11-28T02:33:32.829Z,3.30
2022-11-28T02:36:09.814Z,3.13
2022-11-28T02:38:53.605Z,3.57
2022-11-28T02:41:29.317Z,3.03
2022-11-28T02:44:04.434Z,3.87
2022-11-28T02:46:39.445Z,3.33
2022-11-28T02:49:13.662Z,3.50
2022-11-28T02:51:44.942Z,3.90
2022-11-28T02:54:15.744Z,3.60
2022-11-28T02:56:49.548Z,4.30
2022-11-28T02:59:32.297Z,3.37
2022-11-28T03:02:01.705Z,4.27
2022-11-28T03:04:39.592Z,3.80
2022-11-28T03:07:20.819Z,4.30
2022-11-28T03:10:12.137Z,4.40
2022-11-28T03:12:51.943Z,3.57
2022-11-28T03:15:23.616Z,3.87
2022-11-28T03:18:02.309Z,3.80
2022-11-28T03:20:38.891Z,4.37
2022-11-28T03:23:14.524Z,4.23
2022-11-28T03:25:56.225Z,3.10
2022-11-28T03:28:28.026Z,3.47
2022-11-28T03:31:01.774Z,3.50
2022-11-28T03:33:35.133Z,3.63
2022-11-28T03:36:09.525Z,3.83
2022-11-28T03:38:41.301Z,4.33
2022-11-28T03:41:13.972Z,4.80
2022-11-28T03:43:45.655Z,3.67
2022-11-28T03:46:17.141Z,3.60
2022-11-28T03:48:50.537Z,3.87
2022-11-28T03:51:23.045Z,4.23
2022-11-28T03:53:54.797Z,4.87
2022-11-28T03:56:26.822Z,4.50
2022-11-28T03:59:00.953Z,4.03
2022-11-28T04:01:35.262Z,3.60
2022-11-28T04:04:15.314Z,4.50
2022-11-28T04:06:54.353Z,4.13
2022-11-28T04:09:35.740Z,3.30
2022-11-28T04:12:10.657Z,3.97
2022-11-28T04:14:45.243Z,3.60
2022-11-28T04:17:20.139Z,3.53
2022-11-28T04:19:51.788Z,4.60
2022-11-28T04:22:23.955Z,4.30
2022-11-28T04:24:55.397Z,4.50
2022-11-28T04:27:27.404Z,3.70
2022-11-28T04:29:59.618Z,3.87
2022-11-28T04:32:30.673Z,4.83
2022-11-28T04:35:04.028Z,4.60
2022-11-28T04:37:35.666Z,4.13
2022-11-28T04:40:05.693Z,4.13
2022-11-28T04:42:38.137Z,4.70
2022-11-28T04:45:12.336Z,4.63
2022-11-28T04:47:40.407Z,3.90
2022-11-28T04:50:09.349Z,4.50
2022-11-28T04:52:45.422Z,4.97
2022-11-28T04:55:22.833Z,4.27
2022-11-28T04:57:57.299Z,5.47
2022-11-28T05:00:25.561Z,4.07
2022-11-28T05:02:55.496Z,5.07
2022-11-28T05:05:26.166Z,4.70
2022-11-28T05:07:55.538Z,4.70
2022-11-28T05:10:23.397Z,5.40
2022-11-28T05:12:51.279Z,4.67
2022-11-28T05:15:19.405Z,4.53
2022-11-28T05:17:47.738Z,4.70
2022-11-28T05:20:18.047Z,4.60
2022-11-28T05:22:45.943Z,4.57
2022-11-28T05:25:15.185Z,4.30
2022-11-28T05:27:43.062Z,3.83
2022-11-28T05:30:12.866Z,4.80
2022-11-28T05:32:40.845Z,4.30
2022-11-28T05:35:09.183Z,4.60
2022-11-28T05:37:37.058Z,4.43
2022-11-28T05:40:06.076Z,5.53
2022-11-28T05:42:36.106Z,4.37
2022-11-28T05:45:05.503Z,4.88
2022-11-28T05:47:34.324Z,4.60
2022-11-28T05:50:02.202Z,5.03
2022-11-28T05:52:32.174Z,4.33
2022-11-28T05:55:01.502Z,4.10
2022-11-28T05:57:31.893Z,4.23
2022-11-28T06:00:01.065Z,4.27
2022-11-28T06:02:28.953Z,4.80
2022-11-28T06:04:56.881Z,4.60
2022-11-28T06:07:25.919Z,4.00
2022-11-28T06:09:53.851Z,4.03
2022-11-28T06:12:21.641Z,3.80
2022-11-28T06:14:49.534Z,3.63
2022-11-28T06:17:18.664Z,4.23
2022-11-28T06:19:46.496Z,3.80
2022-11-28T06:22:14.319Z,4.73
2022-11-28T06:24:42.216Z,4.40
2022-11-28T06:27:10.050Z,5.77
2022-11-28T06:29:37.896Z,4.00
2022-11-28T06:32:05.827Z,4.47
2022-11-28T06:34:35.014Z,5.03
2022-11-28T06:37:02.853Z,3.87
2022-11-28T06:39:31.862Z,4.40
2022-11-28T06:41:59.690Z,4.73
2022-11-28T06:44:27.465Z,4.73
2022-11-28T06:46:55.445Z,4.30
2022-11-28T06:49:23.385Z,4.40
2022-11-28T06:51:52.539Z,4.73
2022-11-28T06:54:20.653Z,5.20
2022-11-28T06:56:48.836Z,4.63
2022-11-28T06:59:16.664Z,4.90
2022-11-28T07:01:45.203Z,7.20
2022-11-28T07:04:13.126Z,5.47
2022-11-28T07:06:40.956Z,8.17
2022-11-28T07:09:10.124Z,5.13
2022-11-28T07:11:37.979Z,4.53
2022-11-28T07:14:05.887Z,4.93
2022-11-28T07:16:34.779Z,5.17
2022-11-28T07:19:03.338Z,5.10
2022-11-28T07:21:31.745Z,5.03
2022-11-28T07:24:00.799Z,4.30
2022-11-28T07:26:30.481Z,3.80
2022-11-28T07:28:59.849Z,5.30
2022-11-28T07:31:32.024Z,4.60
2022-11-28T07:34:01.754Z,4.07
2022-11-28T07:36:30.322Z,4.80
2022-11-28T07:39:00.822Z,4.77
2022-11-28T07:41:30.520Z,5.00
2022-11-28T07:44:00.084Z,5.33
2022-11-28T07:46:29.513Z,4.60
2022-11-28T07:48:57.553Z,4.67
2022-11-28T07:51:26.889Z,5.60
2022-11-28T07:53:55.082Z,4.97
2022-11-28T07:56:25.345Z,5.30
2022-11-28T07:58:56.910Z,5.50
2022-11-28T08:01:30.176Z,6.90
2022-11-28T08:03:58.724Z,6.90
2022-11-28T08:06:29.832Z,7.83
2022-11-28T08:08:58.837Z,6.20
2022-11-28T08:11:28.414Z,5.73
2022-11-28T08:13:59.288Z,5.67
2022-11-28T08:16:29.062Z,6.50
2022-11-28T08:18:57.426Z,6.30
2022-11-28T08:21:26.834Z,7.20
2022-11-28T08:23:56.350Z,5.70
2022-11-28T08:26:29.076Z,5.93
2022-11-28T08:29:00.201Z,5.50
2022-11-28T08:31:30.021Z,6.70
2022-11-28T08:34:00.916Z,6.63
2022-11-28T08:36:29.594Z,5.33
2022-11-28T08:39:16.505Z,6.20
2022-11-28T08:41:45.757Z,5.97
2022-11-28T08:44:14.936Z,7.07
2022-11-28T08:46:42.990Z,6.30
2022-11-28T08:49:10.977Z,5.97
2022-11-28T08:51:38.810Z,5.40
2022-11-28T08:54:07.045Z,6.37
2022-11-28T08:56:35.731Z,5.97
2022-11-28T08:59:03.942Z,6.67
2022-11-28T09:01:33.143Z,6.30
2022-11-28T09:04:01.168Z,5.30
2022-11-28T09:06:29.076Z,5.80
2022-11-28T09:08:56.964Z,6.10
2022-11-28T09:11:24.981Z,5.90
2022-11-28T09:13:52.855Z,6.07
2022-11-28T09:16:20.965Z,5.80
2022-11-28T09:18:51.048Z,5.83
2022-11-28T09:21:18.851Z,5.90
2022-11-28T09:23:46.773Z,5.50
2022-11-28T09:26:16.420Z,6.07
2022-11-28T09:28:44.650Z,6.23
2022-11-28T09:31:13.805Z,6.03
2022-11-28T09:33:42.521Z,6.80
2022-11-28T09:36:14.605Z,6.30
2022-11-28T09:38:42.984Z,5.53
2022-11-28T09:41:31.495Z,5.93
2022-11-28T09:44:03.743Z,5.93
2022-11-28T09:46:35.290Z,5.80
2022-11-28T09:49:08.262Z,6.00
2022-11-28T09:51:48.430Z,6.67
2022-11-28T09:54:20.914Z,7.20
2022-11-28T09:56:51.172Z,7.13
2022-11-28T09:59:27.357Z,6.37
2022-11-28T10:02:05.629Z,7.10
2022-11-28T10:04:42.474Z,5.23
2022-11-28T10:07:18.450Z,6.50
2022-11-28T10:09:57.144Z,5.40
2022-11-28T10:12:37.049Z,5.50
2022-11-28T10:15:22.583Z,6.00
2022-11-28T10:18:00.836Z,6.10
2022-11-28T10:20:33.245Z,5.97
2022-11-28T10:23:06.163Z,6.27
2022-11-28T10:25:39.659Z,6.50
2022-11-28T10:28:10.980Z,6.30
2022-11-28T10:30:43.859Z,6.30
2022-11-28T10:33:20.274Z,5.97
2022-11-28T10:35:54.180Z,6.30
2022-11-28T10:38:27.360Z,5.20
2022-11-28T10:41:01.791Z,6.17
2022-11-28T10:43:38.573Z,5.80
2022-11-28T10:46:30.079Z,6.07
2022-11-28T10:49:07.261Z,6.60
2022-11-28T10:51:44.799Z,5.67
2022-11-28T10:54:24.671Z,4.90
2022-11-28T10:57:02.103Z,5.60
2022-11-28T10:59:41.622Z,6.30
2022-11-28T11:02:22.029Z,5.47
2022-11-28T11:04:49.888Z,6.40
2022-11-28T11:07:29.363Z,6.23
2022-11-28T11:10:07.218Z,6.00
2022-11-28T11:12:35.903Z,6.30
2022-11-28T11:15:18.924Z,6.53
2022-11-28T11:17:46.876Z,7.60
2022-11-28T11:20:32.196Z,6.10
2022-11-28T11:23:01.399Z,5.93
2022-11-28T11:25:32.359Z,7.10
2022-11-28T11:28:02.399Z,5.13
2022-11-28T11:30:32.368Z,7.30
2022-11-28T11:33:02.764Z,7.03
2022-11-28T11:35:35.344Z,6.60
2022-11-28T11:38:17.686Z,6.53
2022-11-28T11:40:47.603Z,6.60
2022-11-28T11:43:28.578Z,6.27
2022-11-28T11:46:07.585Z,6.10
2022-11-28T11:48:40.998Z,5.67
2022-11-28T11:51:23.545Z,5.40
2022-11-28T11:54:03.057Z,6.80
2022-11-28T11:56:37.318Z,5.83
2022-11-28T11:59:15.010Z,7.10
2022-11-28T12:01:45.164Z,5.53
2022-11-28T12:04:51.230Z,5.60
2022-11-28T12:07:21.274Z,5.77
2022-11-28T12:09:53.472Z,5.07
2022-11-28T12:12:26.608Z,6.43
2022-11-28T12:14:54.702Z,6.93
2022-11-28T12:17:48.883Z,6.07
2022-11-28T12:20:38.899Z,5.63
2022-11-28T12:23:22.010Z,6.65
2022-11-28T12:25:55.861Z,5.77
2022-11-28T12:28:39.793Z,6.57
2022-11-28T12:31:15.735Z,6.00
2022-11-28T12:33:53.537Z,6.20
2022-11-28T12:36:29.967Z,5.50
2022-11-28T12:39:13.694Z,5.40
2022-11-28T12:42:06.041Z,5.93
2022-11-28T12:44:48.433Z,6.20
2022-11-28T12:47:28.108Z,5.70
2022-11-28T12:50:03.910Z,5.50
2022-11-28T12:52:38.568Z,5.37
2022-11-28T12:55:21.137Z,5.70
2022-11-28T12:58:00.491Z,6.60
2022-11-28T13:00:32.286Z,6.23
2022-11-28T13:03:11.120Z,6.90
2022-11-28T13:05:54.977Z,5.70
2022-11-28T13:08:49.019Z,5.70
2022-11-28T13:11:29.191Z,6.77
2022-11-28T13:14:04.422Z,6.10
2022-11-28T13:16:42.411Z,6.90
2022-11-28T13:19:21.127Z,5.80
2022-11-28T13:21:55.239Z,5.80
2022-11-28T13:24:29.518Z,6.10
2022-11-28T13:27:07.989Z,5.37
2022-11-28T13:29:41.799Z,5.93
2022-11-28T13:32:19.202Z,5.77
2022-11-28T13:34:48.316Z,6.17
2022-11-28T13:40:21.155Z,5.73
2022-11-28T13:43:09.835Z,5.87
2022-11-28T13:45:41.259Z,5.43
2022-11-28T13:51:38.013Z,7.27
2022-11-28T13:54:48.944Z,5.60
2022-11-28T13:57:26.076Z,5.40
2022-11-28T14:00:06.920Z,5.43
2022-11-28T14:02:41.940Z,6.17
2022-11-28T14:05:26.602Z,6.40
2022-11-28T14:07:56.783Z,6.20
2022-11-28T14:10:35.390Z,7.43
2022-11-28T14:13:31.470Z,6.73
2022-11-28T14:16:19.728Z,6.67
2022-11-28T14:19:14.325Z,6.50
2022-11-28T14:21:53.685Z,6.93
2022-11-28T14:24:30.960Z,6.33
2022-11-28T14:27:01.955Z,6.37
2022-11-28T14:29:36.756Z,6.00
2022-11-28T14:34:53.357Z,5.80
2022-11-28T14:37:57.666Z,6.17
2022-11-28T14:41:05.624Z,6.33
2022-11-28T14:43:37.065Z,6.10
2022-11-28T14:46:32.427Z,6.00
2022-11-28T14:49:23.274Z,6.87
2022-11-28T14:52:39.949Z,6.00
2022-11-28T14:55:19.025Z,8.17
2022-11-28T14:57:56.575Z,6.70
2022-11-28T15:00:27.819Z,6.70
2022-11-28T15:03:18.802Z,7.10
2022-11-28T15:05:48.702Z,7.17
2022-11-28T15:08:46.063Z,8.30
2022-11-28T15:11:29.674Z,8.83
2022-11-28T15:14:10.428Z,8.30
2022-11-28T15:16:49.694Z,9.17
2022-11-28T15:19:24.405Z,8.20
2022-11-28T15:21:53.962Z,6.97
2022-11-28T15:24:27.315Z,8.50
2022-11-28T15:26:57.823Z,9.50
2022-11-28T15:29:27.825Z,7.97
2022-11-28T15:31:58.273Z,8.90
2022-11-28T15:34:28.970Z,8.40
2022-11-28T15:36:58.697Z,8.57
2022-11-28T15:39:30.699Z,10.37
2022-11-28T15:42:01.300Z,9.83
2022-11-28T15:44:29.965Z,8.77
2022-11-28T15:46:59.671Z,9.03
2022-11-28T15:49:30.383Z,8.83
2022-11-28T15:52:00.745Z,9.10
2022-11-28T15:54:35.910Z,9.70
2022-11-28T15:57:05.124Z,9.90
2022-11-28T15:59:33.390Z,9.47
2022-11-28T16:02:11.912Z,9.90
2022-11-28T16:04:40.111Z,9.60
2022-11-28T16:07:11.673Z,9.73
2022-11-28T16:09:39.706Z,10.37
2022-11-28T16:12:15.156Z,10.00
2022-11-28T16:14:45.695Z,13.93
2022-11-28T16:17:20.847Z,11.83
2022-11-28T16:19:52.329Z,10.33
2022-11-28T16:22:21.986Z,9.80
2022-11-28T16:24:51.450Z,8.27
2022-11-28T16:27:34.161Z,8.57
2022-11-28T16:30:02.778Z,7.97
2022-11-28T16:32:38.565Z,8.70
2022-11-28T16:35:12.210Z,7.90
2022-11-28T16:37:40.614Z,8.47
2022-11-28T16:40:15.669Z,8.73
2022-11-28T16:42:43.661Z,9.17
2022-11-28T16:45:17.406Z,8.33
2022-11-28T16:47:46.881Z,9.23
2022-11-28T16:50:21.156Z,10.97
2022-11-28T16:52:51.040Z,8.63
2022-11-28T16:55:46.201Z,9.13
2022-11-28T16:58:19.636Z,9.03
2022-11-28T17:00:59.325Z,10.00
2022-11-28T17:03:51.242Z,9.67
2022-11-28T17:06:33.859Z,11.70
2022-11-28T17:09:02.151Z,9.30
2022-11-28T17:11:34.119Z,9.93
2022-11-28T17:14:06.223Z,9.90
2022-11-28T17:16:36.901Z,9.73
2022-11-28T17:19:06.293Z,11.40
2022-11-28T17:21:38.943Z,11.70
2022-11-28T17:24:12.254Z,10.00
2022-11-28T17:26:40.053Z,8.33
2022-11-28T17:29:10.774Z,8.20
2022-11-28T17:31:41.985Z,7.90
2022-11-28T17:34:16.629Z,7.93
2022-11-28T17:36:44.518Z,7.60
2022-11-28T17:39:12.713Z,8.70
2022-11-28T17:41:41.249Z,9.37
2022-11-28T17:44:16.191Z,10.50
2022-11-28T17:46:43.995Z,10.60
2022-11-28T17:49:12.266Z,9.70
2022-11-28T17:51:41.910Z,11.87
2022-11-28T17:54:11.057Z,12.10
2022-11-28T17:56:38.868Z,11.10
2022-11-28T17:59:06.694Z,10.43
2022-11-28T18:01:34.569Z,9.60
2022-11-28T18:04:04.482Z,9.30
2022-11-28T18:06:32.646Z,9.53
2022-11-28T18:09:08.599Z,10.67
2022-11-28T18:11:39.443Z,10.33
2022-11-28T18:14:07.417Z,15.33
2022-11-28T18:16:36.467Z,13.33
2022-11-28T18:19:04.937Z,10.50
2022-11-28T18:21:32.789Z,11.40
2022-11-28T18:24:02.056Z,10.10
2022-11-28T18:26:29.832Z,9.70
2022-11-28T18:28:57.649Z,11.00
2022-11-28T18:31:27.056Z,10.67
2022-11-28T18:34:01.453Z,10.63
2022-11-28T18:36:31.537Z,12.30
2022-11-28T18:39:01.983Z,10.50
2022-11-28T18:41:30.192Z,13.27
2022-11-28T18:43:59.065Z,11.30
2022-11-28T18:46:27.547Z,10.67
2022-11-28T18:48:55.482Z,11.93
2022-11-28T18:51:25.946Z,13.70
2022-11-28T18:53:56.932Z,13.17
2022-11-28T18:56:27.030Z,14.60
2022-11-28T18:58:55.212Z,12.23
2022-11-28T19:01:25.503Z,11.10
2022-11-28T19:03:54.730Z,10.77
2022-11-28T19:06:23.194Z,10.47
2022-11-28T19:08:55.400Z,10.00
2022-11-28T19:11:23.716Z,10.57
2022-11-28T19:13:53.940Z,11.30
2022-11-28T19:16:23.238Z,11.97
2022-11-28T19:18:51.521Z,11.40
2022-11-28T19:21:24.674Z,11.60
2022-11-28T19:23:53.494Z,11.10
2022-11-28T19:26:24.146Z,14.10
2022-11-28T19:28:53.755Z,14.00
2022-11-28T19:31:23.663Z,12.70
2022-11-28T19:34:00.939Z,12.37
2022-11-28T19:36:30.165Z,13.87
2022-11-28T19:38:59.273Z,13.00
2022-11-28T19:41:29.048Z,12.87
2022-11-28T19:44:01.793Z,13.60
2022-11-28T19:46:35.017Z,13.80
2022-11-28T19:49:04.046Z,14.07
2022-11-28T19:51:32.418Z,14.03
2022-11-28T19:54:03.483Z,14.23
2022-11-28T19:56:32.387Z,15.70
2022-11-28T19:59:02.017Z,14.60
2022-11-28T20:01:29.935Z,16.20
2022-11-28T20:03:59.599Z,14.67
2022-11-28T20:06:29.639Z,14.67
2022-11-28T20:09:01.370Z,15.63
2022-11-28T20:11:32.369Z,16.43
2022-11-28T20:14:04.064Z,15.33
2022-11-28T20:16:32.646Z,14.90
2022-11-28T20:19:01.848Z,15.57
2022-11-28T20:21:30.642Z,15.37
2022-11-28T20:24:04.156Z,14.83
2022-11-28T20:26:34.459Z,14.57
2022-11-28T20:29:04.230Z,14.00
2022-11-28T20:31:36.838Z,14.90
2022-11-28T20:34:06.150Z,15.40
2022-11-28T20:36:34.725Z,16.27
2022-11-28T20:39:03.365Z,18.17
2022-11-28T20:41:31.785Z,16.17
2022-11-28T20:44:00.678Z,16.57
2022-11-28T20:46:33.445Z,13.80
2022-11-28T20:49:03.485Z,11.80
2022-11-28T20:51:34.660Z,14.27
2022-11-28T20:54:03.077Z,14.37
2022-11-28T20:56:38.452Z,15.77
2022-11-28T20:59:16.122Z,13.43
2022-11-28T21:01:45.767Z,13.07
2022-11-28T21:04:16.034Z,13.73
2022-11-28T21:06:44.855Z,11.90
2022-11-28T21:09:12.969Z,12.90
2022-11-28T21:11:56.815Z,11.63
2022-11-28T21:14:26.172Z,12.50
2022-11-28T21:16:55.862Z,12.63
2022-11-28T21:19:23.865Z,12.77
2022-11-28T21:21:51.843Z,11.23
2022-11-28T21:24:19.818Z,11.40
2022-11-28T21:26:52.951Z,12.40
2022-11-28T21:29:21.978Z,11.23
2022-11-28T21:31:49.953Z,11.47
2022-11-28T21:34:19.405Z,11.70
2022-11-28T21:36:47.762Z,10.87
2022-11-28T21:39:17.356Z,11.93
2022-11-28T21:41:45.297Z,11.70
2022-11-28T21:44:13.128Z,10.67
2022-11-28T21:46:40.908Z,11.67
2022-11-28T21:49:09.215Z,12.40
2022-11-28T21:51:38.456Z,11.27
2022-11-28T21:54:09.620Z,11.67
2022-11-28T21:56:37.620Z,9.80
2022-11-28T21:59:05.868Z,11.20
2022-11-28T22:01:39.194Z,11.40
2022-11-28T22:04:07.767Z,12.40
2022-11-28T22:06:35.730Z,9.87
2022-11-28T22:09:09.344Z,10.80
2022-11-28T22:11:38.212Z,10.43
2022-11-28T22:14:06.420Z,12.17
2022-11-28T22:16:34.812Z,12.00
2022-11-28T22:19:04.006Z,13.03
2022-11-28T22:24:21.026Z,12.50
2022-11-28T22:26:48.951Z,11.97
2022-11-28T22:29:17.088Z,11.37
2022-11-28T22:31:45.090Z,11.40
2022-11-28T22:34:13.443Z,11.47
2022-11-28T22:36:41.721Z,11.30
2022-11-28T22:39:11.776Z,11.87
2022-11-28T22:41:40.937Z,12.50
2022-11-28T22:44:09.218Z,12.53
2022-11-28T22:46:37.235Z,10.20
2022-11-28T22:49:05.259Z,11.80
2022-11-28T22:51:33.188Z,11.67
2022-11-28T22:54:02.646Z,11.67
2022-11-28T22:56:31.836Z,12.33
2022-11-28T22:59:01.576Z,12.07
2022-11-28T23:01:31.743Z,12.73
2022-11-28T23:04:00.526Z,12.40
2022-11-28T23:06:31.009Z,11.20
2022-11-28T23:09:00.225Z,11.30
2022-11-28T23:11:30.835Z,10.27
2022-11-28T23:14:00.439Z,12.00
2022-11-28T23:16:33.647Z,11.70
2022-11-28T23:19:05.246Z,12.03
2022-11-28T23:21:34.946Z,11.90
2022-11-28T23:24:03.154Z,11.80
2022-11-28T23:26:32.784Z,13.10
2022-11-28T23:29:04.641Z,10.90
2022-11-28T23:31:34.733Z,10.90
2022-11-28T23:34:02.898Z,10.83
2022-11-28T23:36:38.507Z,10.93
2022-11-28T23:39:12.573Z,11.00
2022-11-28T23:41:40.525Z,10.90
2022-11-28T23:44:10.824Z,11.80
2022-11-28T23:46:39.158Z,10.63
2022-11-28T23:49:07.461Z,10.83
2022-11-28T23:51:35.623Z,12.03
2022-11-28T23:54:03.493Z,12.03
2022-11-28T23:56:35.457Z,10.50
2022-11-28T23:59:05.452Z,11.33
